Language: 

Nearby METAR Reports

METAR Reports

Hourly observations from airfields within 50 miles of this weather station

 

EGHH - Bournemouth Airp, United Kingdom
Distance from station: S 10mi, 17km
Updated: Fri, 15-Dec-2017 3:50pm GMT
Few Clouds
Few Clouds
 Wind from NNW
Wind: NNW 12 mph , 19 km/h
Temperature: 5°C
Wind Chill: 1°C
Dew Point: 1°C
Humidity: 76%
Barometer: 1005 hPa
Clouds: Few Clouds
Visibility: 6 miles , 10 km
Cloud details: Few Clouds 975 m
2017/12/15 15:50 EGHH 151550Z 33010KT 290V360 9999 FEW032 05/01 Q1005
EGDM - Boscombe Down, United Kingdom
Distance from station: N 16mi, 26km
Updated: Fri, 15-Dec-2017 3:50pm GMT
Mostly Cloudy
Mostly Cloudy
 Wind from NNW
Wind: NNW 17 mph , 28 km/h
Temperature: 4°C
Wind Chill: -1°C
Dew Point: 1°C
Humidity: 81%
Barometer: 1004 hPa
Clouds: Mostly Cloudy
Visibility: 6 miles , 10 km
Cloud details: Few Clouds 671 m
Mostly Cloudy 762 m
2017/12/15 15:50 EGDM 151550Z 33015KT 9999 FEW022 BKN025 04/01 Q1004 BLU
 
EGVP - Middle Wallop, United Kingdom
Distance from station: NE 17mi, 27km
Updated: Fri, 15-Dec-2017 2:50pm GMT
Partly Cloudy
Partly Cloudy
 Wind from NW
Wind: NW 15 mph , 24 km/h
Temperature: 5°C
Wind Chill: 1°C
Dew Point: 1°C
Humidity: 76%
Barometer: 1003 hPa
Clouds: Partly Cloudy
Visibility: 6 miles , 10 km
Cloud details: Partly Cloudy 732 m
2017/12/15 14:50 EGVP 151450Z AUTO 32013KT 9999 // SCT024/// 05/01 Q1003
EGHI - Southampton Wx C, United Kingdom
Distance from station: E 19mi, 31km
Updated: Fri, 15-Dec-2017 3:50pm GMT
Partly Cloudy
Partly Cloudy
 Wind from NW
Wind: NW 7 mph , 11 km/h
Temperature: 5°C
Wind Chill: 2°C
Dew Point: 0°C
Humidity: 70%
Barometer: 1004 hPa
Clouds: Partly Cloudy
Visibility: 6 miles , 10 km
Cloud details: Few Clouds 853 m
Partly Cloudy 1006 m
2017/12/15 15:50 EGHI 151550Z 31006KT 280V350 9999 FEW028 SCT033 05/00 Q1004
 
EGDY - Yeovilton (navy), United Kingdom
Distance from station: W 36mi, 58km
Updated: Fri, 15-Dec-2017 3:50pm GMT
Few Clouds
Few Clouds
 Wind from NNW
Wind: NNW 13 mph , 20 km/h
Temperature: 6°C
Wind Chill: 2°C
Dew Point: 2°C
Humidity: 76%
Barometer: 1006 hPa
Clouds: Few Clouds
Visibility: 6 miles , 10 km
Cloud details: Few Clouds 1067 m
2017/12/15 15:50 EGDY 151550Z 33011KT 9999 FEW035 06/02 Q1006 BLU NOSIG
EGVO - Odiham Raf, United Kingdom
Distance from station: ENE 42mi, 68km
Updated: Fri, 15-Dec-2017 3:50pm GMT
Partly Cloudy
Partly Cloudy
 Wind from NW
Wind: NW 12 mph , 19 km/h
Temperature: 4°C
Wind Chill: 0°C
Dew Point: 1°C
Humidity: 81%
Barometer: 1003 hPa
Clouds: Partly Cloudy
Visibility: 6 miles , 10 km
Cloud details: Partly Cloudy 762 m
2017/12/15 15:50 EGVO 151550Z 32010KT 9999 SCT025 04/01 Q1003 BLU BECMG SCT022 WHT

Metar display script from Saratoga-Weather.org

top of page button